Seattle Bryant

47° 40' 27"N, 122° 17' 17"W, Elevation 230 ft.
Pacific Time

Hourly observations for the last 72 hours

Date Time Temperature (F) Humi-
dity

(%)
Wind
(mph)
Pressure Rain (in)
Air Dew 6 Hour 1 Hr 3 Hr 6 Hr Day
Alt
(in)
Sea
Level

(mb)
Max Min
23 16:00 67.9 52.1 57 S 4 G 7 30.05 1017.6 0.00
23 15:00 66.9 53.0 61 SSE 3 G 6 30.05 1017.6 0.00
23 14:00 66.0 53.1 63 S 2 G 6 30.05 1017.6 0.00
23 13:00 65.8 53.3 64 S 4 G 9 30.06 1018.1 0.00
23 12:00 64.3 52.7 66 SSE 5 G 10 30.07 1018.2 0.00
23 11:00 62.7 50.8 63.1 55.0 65 S 3 G 10 30.07 1018.2 0.00
23 10:00 61.9 51.2 68 SSE 3 G 7 30.06 1017.8 0.00
23 09:00 59.0 52.5 79 S 4 G 6 30.05 1017.6 0.00
23 08:00 55.0 50.9 86 ESE 1 G 3 30.04 1017.2 0.00
23 07:00 55.1 51.6 88 S 0 G 1 30.02 1016.8 0.00
23 06:00 55.4 51.6 87 S 0 G 1 30.02 1016.5 0.00
23 05:00 55.4 51.6 57.8 55.4 87 S 0 G 1 30.02 1016.5 0.00
23 04:00 55.8 51.4 85 S 0 G 2 30.01 1016.2 0.00
23 03:00 56.5 51.7 84 S 3 G 5 30.00 1016.0 0.00
23 02:00 57.3 51.5 81 S 2 G 6 30.00 1015.9 0.00
23 01:00 57.7 51.2 79 SSW 3 G 5 30.00 1016.0 0.00
23 00:00 57.6 51.1 79 SSW 0 G 1 29.99 1015.7 0.00
22 23:00 57.8 50.3 65.3 57.5 76 Calm 29.99 1015.6 0.00
22 22:00 57.8 48.1 70 NNW 0 G 1 29.99 1015.6 0.00
22 21:00 58.6 47.7 67 NNW 0 G 2 30.00 1015.9 0.00
22 20:00 60.3 48.9 66 NNW 0 G 1 29.99 1015.6 0.00
22 19:00 62.3 47.8 59 NNW 0 G 1 29.99 1015.6 0.00
22 18:00 64.1 48.6 57 NW 0 G 3 29.99 1015.5 0.00
22 17:00 65.3 48.2 67.7 60.9 54 WSW 2 G 7 29.99 1015.5 0.00
22 16:00 67.2 49.0 52 WSW 4 G 8 29.99 1015.5 0.00
22 15:00 67.7 50.0 53 NNW 3 G 9 30.00 1015.8 0.00
22 14:00 66.2 48.6 53 N 2 G 9 30.00 1016.1 0.00
22 13:00 64.3 50.1 60 N 4 G 13 30.00 1016.1 0.00
22 12:00 62.8 50.9 65 E 2 G 5 30.01 1016.5 0.00
22 11:00 61.4 50.4 61.5 50.5 67 SE 3 G 5 30.02 1016.7 0.00
22 10:00 58.7 50.1 73 SSE 3 G 5 30.02 1016.7 0.00
22 09:00 54.6 50.2 85 S 2 G 5 30.02 1016.7 0.00
22 08:00 50.8 48.9 93 SSW 1 G 2 30.02 1016.7 0.00
22 07:00 50.6 48.7 93 SSW 0 G 3 30.01 1016.2 0.00
22 06:00 51.1 49.1 93 SSW 0 G 1 29.99 1015.7 0.00
22 05:00 51.6 49.6 52.5 51.6 93 E 1 G 2 29.99 1015.6 0.00
22 04:00 51.8 49.8 93 E 0 G 2 29.98 1015.1 0.00
22 03:00 51.7 49.7 93 E 0 G 1 29.98 1015.1 0.00
22 02:00 52.1 50.1 93 Calm 29.98 1015.3 0.00
22 01:00 52.3 50.0 92 Calm 29.97 1015.0 0.00
22 00:00 52.3 50.3 93 E 1 G 3 29.97 1015.0 0.00
21 23:00 52.0 49.2 60.2 52.0 90 E 1 G 1 29.96 1014.6 0.00
21 22:00 52.8 49.7 89 Calm 29.96 1014.5 0.00
21 21:00 53.9 50.1 87 E 1 G 1 29.95 1014.4 0.00
21 20:00 54.5 50.1 85 E 2 G 2 29.94 1014.0 0.00
21 19:00 56.9 49.4 76 N 1 G 1 29.93 1013.5 0.00
21 18:00 59.5 47.3 64 N 0 G 5 29.92 1013.4 0.00
21 17:00 60.2 48.4 62.2 53.9 65 N 2 G 6 29.92 1013.1 0.00
21 16:00 61.6 48.5 62 SW 3 G 4 29.91 1012.9 0.00
21 15:00 61.0 49.6 66 ESE 1 G 6 29.91 1012.8 0.00
21 14:00 58.5 50.6 75 SE 2 G 4 29.91 1012.9 0.00
21 13:00 55.5 50.4 83 NNW 1 G 2 29.91 1013.0 0.00
21 12:00 54.3 49.9 85 W 1 G 3 29.91 1012.9 0.00
21 11:00 53.9 49.8 53.9 51.2 86 S 0 G 3 29.90 1012.5 0.00
21 10:00 53.1 49.9 89 WNW 0 G 3 29.89 1012.4 0.00
21 09:00 51.5 48.7 90 SSW 1 G 3 29.88 1011.9 0.00
21 08:00 51.6 49.4 92 W 1 G 4 29.87 1011.4 0.00
21 07:00 51.3 48.8 91 S 2 G 4 29.85 1010.9 0.00
21 06:00 51.2 48.7 91 S 1 G 3 29.84 1010.6 0.00
21 05:00 51.4 48.3 51.4 50.3 89 S 1 G 2 29.83 1010.3 0.00
21 04:00 51.0 48.2 90 S 1 G 5 29.82 1009.8 0.00
21 03:00 51.1 48.0 89 S 2 G 5 29.81 1009.6 0.00
21 02:00 51.0 47.9 89 S 2 G 5 29.81 1009.3 0.00
21 01:00 50.3 47.8 91 SSW 1 G 4 29.80 1009.3 0.00
21 00:00 50.8 48.6 92 S 0 G 2 29.79 1008.8 0.01
20 23:00 51.0 48.2 58.0 51.0 90 Calm 29.79 1008.7 0.01
20 22:00 52.2 48.8 88 SSW 2 G 4 29.77 1008.3 0.01
20 21:00 51.8 48.1 87 WSW 2 G 3 29.77 1008.2 0.01
20 20:00 52.2 47.8 85 WSW 1 G 3 29.76 1007.8 0.01
20 19:00 54.4 49.0 82 W 2 G 4 29.75 1007.4 0.01
20 18:00 56.3 47.8 73 SSW 1 G 4 29.73 1006.8 0.01
20 17:00 58.0 47.9 60.4 51.5 69 WSW 2 G 5 29.72 1006.3 0.01

Data generated by WxSolution Version 1.8.7.3, Build 2014.12.21.